createdAt,value
2022-12-31T00:00:12.344Z,7.90
2022-12-31T00:02:39.139Z,8.00
2022-12-31T00:05:07.509Z,8.00
2022-12-31T00:10:02.152Z,8.10
2022-12-31T00:12:29.174Z,8.20
2022-12-31T00:14:55.914Z,8.20
2022-12-31T00:17:22.683Z,8.20
2022-12-31T00:19:49.452Z,8.20
2022-12-31T00:22:16.217Z,8.10
2022-12-31T00:24:42.988Z,8.20
2022-12-31T00:27:09.726Z,8.20
2022-12-31T00:29:36.458Z,8.20
2022-12-31T00:32:03.202Z,8.20
2022-12-31T00:34:29.991Z,8.20
2022-12-31T00:36:56.753Z,8.20
2022-12-31T00:39:23.548Z,8.20
2022-12-31T00:41:50.442Z,8.30
2022-12-31T00:44:17.221Z,8.30
2022-12-31T00:49:10.298Z,8.40
2022-12-31T00:51:37.039Z,8.60
2022-12-31T00:54:03.891Z,8.70
2022-12-31T00:56:31.426Z,8.80
2022-12-31T00:58:59.768Z,8.90
2022-12-31T01:01:35.657Z,8.90
2022-12-31T01:04:09.295Z,8.90
2022-12-31T01:06:36.210Z,8.90
2022-12-31T01:09:04.055Z,9.00
2022-12-31T01:11:30.886Z,9.00
2022-12-31T01:14:09.078Z,9.00
2022-12-31T01:16:47.713Z,9.10
2022-12-31T01:19:18.896Z,9.20
2022-12-31T01:21:47.381Z,9.20
2022-12-31T01:24:14.242Z,9.20
2022-12-31T01:26:41.560Z,9.20
2022-12-31T01:29:09.957Z,9.20
2022-12-31T01:31:38.129Z,9.20
2022-12-31T01:34:07.199Z,9.20
2022-12-31T01:36:35.780Z,9.20
2022-12-31T01:39:05.757Z,9.20
2022-12-31T01:41:39.824Z,9.20
2022-12-31T01:44:12.600Z,9.20
2022-12-31T01:46:49.708Z,9.20
2022-12-31T01:49:30.740Z,9.30
2022-12-31T01:52:02.231Z,9.20
2022-12-31T01:54:32.168Z,9.20
2022-12-31T01:56:59.281Z,9.20
2022-12-31T01:59:28.771Z,9.30
2022-12-31T02:01:56.159Z,9.10
2022-12-31T02:04:24.858Z,9.10
2022-12-31T02:07:18.106Z,9.10
2022-12-31T02:09:45.880Z,9.00
2022-12-31T02:12:12.871Z,9.00
2022-12-31T02:14:46.471Z,8.90
2022-12-31T02:17:22.142Z,9.00
2022-12-31T02:20:20.200Z,9.00
2022-12-31T02:22:50.088Z,8.90
2022-12-31T02:25:38.788Z,8.90
2022-12-31T02:28:35.594Z,8.90
2022-12-31T02:31:17.578Z,8.90
2022-12-31T02:33:58.655Z,8.80
2022-12-31T02:36:29.965Z,8.80
2022-12-31T02:38:58.441Z,8.80
2022-12-31T02:41:43.719Z,8.80
2022-12-31T02:44:33.017Z,8.80
2022-12-31T02:47:08.726Z,8.80
2022-12-31T02:49:50.603Z,8.70
2022-12-31T02:52:48.377Z,8.70
2022-12-31T02:55:38.077Z,8.80
2022-12-31T02:58:10.433Z,8.70
2022-12-31T03:01:03.913Z,8.70
2022-12-31T03:03:32.263Z,8.70
2022-12-31T03:06:03.177Z,8.70
2022-12-31T03:08:30.451Z,8.70
2022-12-31T03:10:57.231Z,8.80
2022-12-31T03:13:24.655Z,8.80
2022-12-31T03:15:51.517Z,8.80
2022-12-31T03:18:39.257Z,8.70
2022-12-31T03:21:32.001Z,8.70
2022-12-31T03:24:17.366Z,8.70
2022-12-31T03:26:44.068Z,8.60
2022-12-31T03:29:10.785Z,8.70
2022-12-31T03:31:37.587Z,8.70
2022-12-31T03:34:04.338Z,8.70
2022-12-31T03:36:31.059Z,8.60
2022-12-31T03:38:57.804Z,8.60
2022-12-31T03:41:24.551Z,8.60
2022-12-31T03:43:51.290Z,8.60
2022-12-31T03:46:18.141Z,8.60
2022-12-31T03:48:44.915Z,8.60
2022-12-31T03:51:11.625Z,8.60
2022-12-31T03:53:38.345Z,8.70
2022-12-31T03:56:05.316Z,8.60
2022-12-31T03:58:32.023Z,8.60
2022-12-31T04:00:58.940Z,8.60
2022-12-31T04:03:25.832Z,8.60
2022-12-31T04:05:54.819Z,8.60
2022-12-31T04:08:21.571Z,8.60
2022-12-31T04:10:48.322Z,8.60
2022-12-31T04:13:15.214Z,8.70
2022-12-31T04:15:41.961Z,8.80
2022-12-31T04:18:08.676Z,8.80
2022-12-31T04:20:35.412Z,8.80
2022-12-31T04:23:02.167Z,8.80
2022-12-31T04:25:29.155Z,8.90
2022-12-31T04:27:55.886Z,8.90
2022-12-31T04:30:22.633Z,8.90
2022-12-31T04:32:49.352Z,8.80
2022-12-31T04:35:16.096Z,8.80
2022-12-31T04:37:42.905Z,9.10
2022-12-31T04:40:10.073Z,9.10
2022-12-31T04:42:37.238Z,9.10
2022-12-31T04:45:04.804Z,9.00
2022-12-31T04:47:31.529Z,9.00
2022-12-31T04:49:58.265Z,9.10
2022-12-31T04:52:25.035Z,9.00
2022-12-31T04:54:51.739Z,9.10
2022-12-31T04:57:18.465Z,9.20
2022-12-31T04:59:45.187Z,9.30
2022-12-31T05:02:12.235Z,9.50
2022-12-31T05:04:39.127Z,9.50
2022-12-31T05:07:05.905Z,9.60
2022-12-31T05:09:32.621Z,9.50
2022-12-31T05:11:59.359Z,9.70
2022-12-31T05:14:26.247Z,9.80
2022-12-31T05:16:53.184Z,9.90
2022-12-31T05:19:19.986Z,10.00
2022-12-31T05:22:06.690Z,10.10
2022-12-31T05:24:33.416Z,10.00
2022-12-31T05:27:00.171Z,10.20
2022-12-31T05:29:26.951Z,10.30
2022-12-31T05:31:53.704Z,10.30
2022-12-31T05:34:20.547Z,10.40
2022-12-31T05:36:47.301Z,10.40
2022-12-31T05:39:14.088Z,10.50
2022-12-31T05:41:40.790Z,10.60
2022-12-31T05:44:07.514Z,10.60
2022-12-31T05:46:34.279Z,10.70
2022-12-31T05:49:01.014Z,10.80
2022-12-31T05:51:27.753Z,10.80
2022-12-31T05:53:54.522Z,10.80
2022-12-31T05:56:21.237Z,10.80
2022-12-31T05:58:47.929Z,10.80
2022-12-31T06:01:14.729Z,10.70
2022-12-31T06:03:41.915Z,10.70
2022-12-31T06:06:08.683Z,10.60
2022-12-31T06:08:35.420Z,10.50
2022-12-31T06:11:02.151Z,10.50
2022-12-31T06:13:29.073Z,10.60
2022-12-31T06:15:55.853Z,10.70
2022-12-31T06:18:22.657Z,10.70
2022-12-31T06:20:49.403Z,10.80
2022-12-31T06:23:16.127Z,10.70
2022-12-31T06:25:42.904Z,10.80
2022-12-31T06:28:12.178Z,10.80
2022-12-31T06:30:44.846Z,10.80
2022-12-31T06:33:12.146Z,11.00
2022-12-31T06:35:38.850Z,10.90
2022-12-31T06:38:05.641Z,10.80
2022-12-31T06:40:32.372Z,10.80
2022-12-31T06:43:00.319Z,10.70
2022-12-31T06:45:28.174Z,10.80
2022-12-31T06:47:54.975Z,10.80
2022-12-31T06:50:21.753Z,10.80
2022-12-31T06:52:48.465Z,10.80
2022-12-31T06:55:15.816Z,10.90
2022-12-31T06:57:42.761Z,10.90
2022-12-31T07:00:11.168Z,10.90
2022-12-31T07:02:40.694Z,11.00
2022-12-31T07:05:41.872Z,11.00
2022-12-31T07:08:14.902Z,11.00
2022-12-31T07:10:44.385Z,11.00
2022-12-31T07:13:44.234Z,11.10
2022-12-31T07:16:48.661Z,11.10
2022-12-31T07:19:30.062Z,11.00
2022-12-31T07:21:58.766Z,10.90
2022-12-31T07:24:25.911Z,11.00
2022-12-31T07:27:26.003Z,11.20
2022-12-31T07:29:58.541Z,11.20
2022-12-31T07:32:46.499Z,11.20
2022-12-31T07:35:35.002Z,11.20
2022-12-31T07:38:08.168Z,11.30
2022-12-31T07:41:17.884Z,11.30
2022-12-31T07:44:11.815Z,11.30
2022-12-31T07:46:55.431Z,11.40
2022-12-31T07:49:23.405Z,11.30
2022-12-31T07:51:50.664Z,11.40
2022-12-31T07:54:18.084Z,11.40
2022-12-31T07:56:45.501Z,11.40
2022-12-31T07:59:48.787Z,11.40
2022-12-31T08:02:21.792Z,11.40
2022-12-31T08:04:59.849Z,11.40
2022-12-31T08:07:36.522Z,11.50
2022-12-31T08:10:18.578Z,11.50
2022-12-31T08:12:49.482Z,11.50
2022-12-31T08:15:20.085Z,11.60
2022-12-31T08:17:48.903Z,11.60
2022-12-31T08:20:17.265Z,11.60
2022-12-31T08:23:05.177Z,11.60
2022-12-31T08:25:34.704Z,11.70
2022-12-31T08:28:16.437Z,11.80
2022-12-31T08:31:02.297Z,11.90
2022-12-31T08:34:00.711Z,12.00
2022-12-31T08:36:50.746Z,12.00
2022-12-31T08:39:50.348Z,12.10
2022-12-31T08:42:31.183Z,12.20
2022-12-31T08:45:15.868Z,12.30
2022-12-31T08:47:59.802Z,12.30
2022-12-31T08:50:28.772Z,12.50
2022-12-31T08:52:55.849Z,12.60
2022-12-31T08:55:22.953Z,12.70
2022-12-31T08:58:01.191Z,12.80
2022-12-31T09:00:28.940Z,12.80
2022-12-31T09:03:01.816Z,12.80
2022-12-31T09:05:43.884Z,12.80
2022-12-31T09:08:29.603Z,12.90
2022-12-31T09:11:05.512Z,12.90
2022-12-31T09:13:46.935Z,13.10
2022-12-31T09:16:30.315Z,13.20
2022-12-31T09:18:57.112Z,13.30
2022-12-31T09:21:27.066Z,13.30
2022-12-31T09:23:54.189Z,13.30
2022-12-31T09:26:26.712Z,13.40
2022-12-31T09:29:13.759Z,13.50
2022-12-31T09:31:49.389Z,13.50
2022-12-31T09:34:41.097Z,13.60
2022-12-31T09:37:32.565Z,13.60
2022-12-31T09:40:14.760Z,13.50
2022-12-31T09:43:29.245Z,13.60
2022-12-31T09:46:23.825Z,13.70
2022-12-31T09:49:05.858Z,13.90
2022-12-31T09:51:52.912Z,13.90
2022-12-31T09:54:22.558Z,13.90
2022-12-31T09:57:01.029Z,13.90
2022-12-31T09:59:45.423Z,13.80
2022-12-31T10:03:07.039Z,13.80
2022-12-31T10:06:06.556Z,13.80
2022-12-31T10:08:56.695Z,13.80
2022-12-31T10:12:00.130Z,13.80
2022-12-31T10:15:05.590Z,13.90
2022-12-31T10:17:47.055Z,13.90
2022-12-31T10:20:32.284Z,13.90
2022-12-31T10:22:58.990Z,13.90
2022-12-31T10:25:48.997Z,13.90
2022-12-31T10:28:43.619Z,14.00
2022-12-31T10:31:33.605Z,14.10
2022-12-31T10:34:25.466Z,14.10
2022-12-31T10:37:03.785Z,14.10
2022-12-31T10:39:46.281Z,14.20
2022-12-31T10:42:27.491Z,14.20
2022-12-31T10:45:27.240Z,14.20
2022-12-31T10:48:12.867Z,14.20
2022-12-31T10:51:19.118Z,14.10
2022-12-31T10:54:17.479Z,14.10
2022-12-31T10:57:13.306Z,14.10
2022-12-31T10:59:54.548Z,14.20
2022-12-31T11:02:40.539Z,14.20
2022-12-31T11:05:38.786Z,14.30
2022-12-31T11:08:36.452Z,14.20
2022-12-31T11:11:30.336Z,14.20
2022-12-31T11:14:39.117Z,14.30
2022-12-31T11:17:34.571Z,14.30
2022-12-31T11:20:24.700Z,14.30
2022-12-31T11:23:17.133Z,14.30
2022-12-31T11:26:14.105Z,14.40
2022-12-31T11:29:02.153Z,14.40
2022-12-31T11:32:01.802Z,14.50
2022-12-31T11:34:43.327Z,14.80
2022-12-31T11:37:28.763Z,14.90
2022-12-31T11:40:14.997Z,14.90
2022-12-31T11:42:46.500Z,14.90
2022-12-31T11:45:51.113Z,14.80
2022-12-31T11:48:30.522Z,14.80
2022-12-31T11:51:16.523Z,14.80
2022-12-31T11:54:08.210Z,14.90
2022-12-31T11:56:40.318Z,15.10
2022-12-31T11:59:19.056Z,15.50
2022-12-31T12:01:54.961Z,15.80
2022-12-31T12:04:21.882Z,15.90
2022-12-31T12:06:48.643Z,15.90
2022-12-31T12:09:22.328Z,16.00
2022-12-31T12:12:01.889Z,16.10
2022-12-31T12:14:35.245Z,16.30
2022-12-31T12:17:06.494Z,16.50
2022-12-31T12:19:34.928Z,16.80
2022-12-31T12:22:12.941Z,16.90
2022-12-31T12:24:39.977Z,16.80
2022-12-31T12:27:20.937Z,16.70
2022-12-31T12:29:47.992Z,16.70
2022-12-31T12:32:25.012Z,16.50
2022-12-31T12:34:52.182Z,16.30
2022-12-31T12:37:25.044Z,16.20
2022-12-31T12:40:04.413Z,16.10
2022-12-31T12:42:32.182Z,16.20
2022-12-31T12:45:10.879Z,16.50
2022-12-31T12:47:37.698Z,17.10
2022-12-31T12:50:05.964Z,17.40
2022-12-31T12:52:59.538Z,17.40
2022-12-31T12:55:55.411Z,17.60
2022-12-31T12:58:52.919Z,17.40
2022-12-31T13:01:28.477Z,17.30
2022-12-31T13:04:35.062Z,17.30
2022-12-31T13:07:07.858Z,17.30
2022-12-31T13:09:53.987Z,17.80
2022-12-31T13:12:25.616Z,18.20
2022-12-31T13:15:18.203Z,18.20
2022-12-31T13:18:24.698Z,18.30
2022-12-31T13:21:00.860Z,18.40
2022-12-31T13:23:56.692Z,18.50
2022-12-31T13:26:38.460Z,18.20
2022-12-31T13:29:11.361Z,18.20
2022-12-31T13:31:40.129Z,18.20
2022-12-31T13:34:29.372Z,17.90
2022-12-31T13:36:59.282Z,18.20
2022-12-31T13:39:30.331Z,18.40
2022-12-31T13:42:16.663Z,18.40
2022-12-31T13:45:00.987Z,18.30
2022-12-31T13:47:36.992Z,17.80
2022-12-31T13:50:34.348Z,17.50
2022-12-31T13:53:26.956Z,17.10
2022-12-31T13:55:59.171Z,16.90
2022-12-31T13:58:48.722Z,17.00
2022-12-31T14:01:34.019Z,17.00
2022-12-31T14:04:33.184Z,16.70
2022-12-31T14:07:12.228Z,16.50
2022-12-31T14:09:39.047Z,16.40
2022-12-31T14:12:22.339Z,16.20
2022-12-31T14:15:07.281Z,15.90
2022-12-31T14:17:39.063Z,15.60
2022-12-31T14:20:23.718Z,15.40
2022-12-31T14:22:57.308Z,15.30
2022-12-31T14:26:07.503Z,15.10
2022-12-31T14:28:56.919Z,15.00
2022-12-31T14:31:48.469Z,14.90
2022-12-31T14:34:30.079Z,14.70
2022-12-31T14:37:32.887Z,14.60
2022-12-31T14:40:17.949Z,14.60
2022-12-31T14:42:47.399Z,14.50
2022-12-31T14:45:35.307Z,14.40
2022-12-31T14:48:30.679Z,14.40
2022-12-31T14:51:01.046Z,14.30
2022-12-31T14:53:28.953Z,14.20
2022-12-31T14:56:04.620Z,14.10
2022-12-31T14:58:37.805Z,13.90
2022-12-31T15:01:22.375Z,13.80
2022-12-31T15:03:52.300Z,13.80
2022-12-31T15:06:35.859Z,13.60
2022-12-31T15:09:15.869Z,13.40
2022-12-31T15:12:18.669Z,13.30
2022-12-31T15:15:10.143Z,13.10
2022-12-31T15:17:54.929Z,12.90
2022-12-31T15:21:00.864Z,12.80
2022-12-31T15:23:39.368Z,12.80
2022-12-31T15:26:07.074Z,12.70
2022-12-31T15:28:39.429Z,12.60
2022-12-31T15:31:19.887Z,12.60
2022-12-31T15:34:03.607Z,12.40
2022-12-31T15:36:35.934Z,12.30
2022-12-31T15:39:11.479Z,12.30
2022-12-31T15:42:18.845Z,12.20
2022-12-31T15:44:54.924Z,12.30
2022-12-31T15:47:32.646Z,12.20
2022-12-31T15:50:03.951Z,12.10
2022-12-31T15:52:43.417Z,12.00
2022-12-31T15:55:30.685Z,11.80
2022-12-31T15:58:09.741Z,11.80
2022-12-31T16:00:59.758Z,11.80
2022-12-31T16:03:29.602Z,11.70
2022-12-31T16:06:13.988Z,11.60
2022-12-31T16:08:45.259Z,11.60
2022-12-31T16:11:12.302Z,11.60
2022-12-31T16:13:48.370Z,11.40
2022-12-31T16:16:24.903Z,11.10
2022-12-31T16:18:53.169Z,10.80
2022-12-31T16:21:38.971Z,10.90
2022-12-31T16:24:06.763Z,10.90
2022-12-31T16:27:01.326Z,11.00
2022-12-31T16:29:28.756Z,11.10
2022-12-31T16:31:55.573Z,11.10
2022-12-31T16:34:25.269Z,11.20
2022-12-31T16:37:06.897Z,11.20
2022-12-31T16:39:36.019Z,11.10
2022-12-31T16:42:23.830Z,11.20
2022-12-31T16:44:52.553Z,11.30
2022-12-31T16:47:36.236Z,11.30
2022-12-31T16:50:11.106Z,11.40
2022-12-31T16:52:40.949Z,11.50
2022-12-31T16:55:15.613Z,11.40
2022-12-31T16:57:46.526Z,11.30
2022-12-31T17:00:18.628Z,11.20
2022-12-31T17:03:07.445Z,11.10
2022-12-31T17:05:36.581Z,11.20
2022-12-31T17:08:43.047Z,11.20
2022-12-31T17:11:31.166Z,11.10
2022-12-31T17:14:07.661Z,11.10
2022-12-31T17:17:01.748Z,11.00
2022-12-31T17:19:34.776Z,11.00
2022-12-31T17:22:03.198Z,11.10
2022-12-31T17:24:30.122Z,11.10
2022-12-31T17:27:05.073Z,11.00
2022-12-31T17:29:32.665Z,10.80
2022-12-31T17:32:09.977Z,10.60
2022-12-31T17:34:49.132Z,10.60
2022-12-31T17:37:28.964Z,10.50
2022-12-31T17:40:25.053Z,10.50
2022-12-31T17:42:50.462Z,10.40
2022-12-31T17:45:21.925Z,10.40
2022-12-31T17:47:52.349Z,10.60
2022-12-31T17:50:21.823Z,10.60
2022-12-31T17:52:48.847Z,10.60
2022-12-31T17:55:15.880Z,10.60
2022-12-31T17:57:56.931Z,10.70
2022-12-31T18:00:26.275Z,10.70
2022-12-31T18:02:53.195Z,10.80
2022-12-31T18:05:22.815Z,10.90
2022-12-31T18:07:50.149Z,10.90
2022-12-31T18:10:19.398Z,10.90
2022-12-31T18:12:48.144Z,10.80
2022-12-31T18:15:18.011Z,10.80
2022-12-31T18:17:45.208Z,10.80
2022-12-31T18:20:12.655Z,10.70
2022-12-31T18:22:41.920Z,10.70
2022-12-31T18:25:17.272Z,10.70
2022-12-31T18:27:44.346Z,10.70
2022-12-31T18:30:12.184Z,10.70
2022-12-31T18:32:40.888Z,10.70
2022-12-31T18:35:33.401Z,10.70
2022-12-31T18:38:01.649Z,10.70
2022-12-31T18:40:28.912Z,10.70
2022-12-31T18:42:59.688Z,10.60
2022-12-31T18:45:29.786Z,10.40
2022-12-31T18:47:56.688Z,10.50
2022-12-31T18:50:23.505Z,10.60
2022-12-31T18:52:50.221Z,10.50
2022-12-31T18:55:23.775Z,10.60
2022-12-31T18:57:50.596Z,10.40
2022-12-31T19:00:17.710Z,10.50
2022-12-31T19:02:44.612Z,10.50
2022-12-31T19:05:26.556Z,10.60
2022-12-31T19:07:53.960Z,10.50
2022-12-31T19:10:21.254Z,10.30
2022-12-31T19:12:48.726Z,10.30
2022-12-31T19:15:33.362Z,10.30
2022-12-31T19:18:01.722Z,10.30
2022-12-31T19:20:30.327Z,10.30
2022-12-31T19:22:58.824Z,10.30
2022-12-31T19:25:33.660Z,10.40
2022-12-31T19:28:01.604Z,10.20
2022-12-31T19:30:31.618Z,10.20
2022-12-31T19:32:58.744Z,10.20
2022-12-31T19:35:26.866Z,10.10
2022-12-31T19:37:55.130Z,10.10
2022-12-31T19:40:26.260Z,10.10
2022-12-31T19:42:54.843Z,10.10
2022-12-31T19:45:24.197Z,10.10
2022-12-31T19:47:52.160Z,10.10
2022-12-31T19:50:24.529Z,10.10
2022-12-31T19:52:54.329Z,10.00
2022-12-31T19:55:22.262Z,9.90
2022-12-31T19:57:49.327Z,9.80
2022-12-31T20:00:17.976Z,9.90
2022-12-31T20:02:46.914Z,9.90
2022-12-31T20:05:15.924Z,9.90
2022-12-31T20:07:42.901Z,9.70
2022-12-31T20:10:10.782Z,9.50
2022-12-31T20:12:43.932Z,9.30
2022-12-31T20:15:11.529Z,9.30
2022-12-31T20:17:38.576Z,9.30
2022-12-31T20:20:06.806Z,9.30
2022-12-31T20:22:33.847Z,9.40
2022-12-31T20:25:00.666Z,9.40
2022-12-31T20:27:27.990Z,9.30
2022-12-31T20:29:54.753Z,9.30
2022-12-31T20:32:21.472Z,9.50
2022-12-31T20:34:48.341Z,9.40
2022-12-31T20:37:15.232Z,9.40
2022-12-31T20:39:43.310Z,9.30
2022-12-31T20:42:10.228Z,9.20
2022-12-31T20:44:37.061Z,9.20
2022-12-31T20:47:03.951Z,9.10
2022-12-31T20:50:01.276Z,9.00
2022-12-31T20:52:17.454Z,9.00
2022-12-31T20:54:44.262Z,9.10
2022-12-31T20:57:11.038Z,9.20
2022-12-31T20:59:37.901Z,9.30
2022-12-31T21:02:20.967Z,9.30
2022-12-31T21:04:48.438Z,9.30
2022-12-31T21:07:15.320Z,9.30
2022-12-31T21:09:42.132Z,9.20
2022-12-31T21:12:34.570Z,9.20
2022-12-31T21:15:02.397Z,9.30
2022-12-31T21:17:29.627Z,9.30
2022-12-31T21:19:56.415Z,9.40
2022-12-31T21:22:24.140Z,9.40
2022-12-31T21:24:51.023Z,9.40
2022-12-31T21:27:17.847Z,9.30
2022-12-31T21:30:16.321Z,9.40
2022-12-31T21:32:31.599Z,9.50
2022-12-31T21:35:31.569Z,9.60
2022-12-31T21:37:58.178Z,9.80
2022-12-31T21:40:27.941Z,9.50
2022-12-31T21:42:54.915Z,9.40
2022-12-31T21:45:21.871Z,9.30
2022-12-31T21:48:07.369Z,9.30
2022-12-31T21:50:34.263Z,9.40
2022-12-31T21:53:01.237Z,9.50
2022-12-31T21:56:06.606Z,9.50
2022-12-31T21:58:33.736Z,9.40
2022-12-31T22:01:19.435Z,9.30
2022-12-31T22:03:46.456Z,9.10
2022-12-31T22:06:20.778Z,8.90
2022-12-31T22:08:52.845Z,9.30
2022-12-31T22:11:22.409Z,9.50
2022-12-31T22:13:49.982Z,9.80
2022-12-31T22:16:19.015Z,9.90
2022-12-31T22:18:46.601Z,10.00
2022-12-31T22:21:21.948Z,10.30
2022-12-31T22:23:51.728Z,10.30
2022-12-31T22:26:21.472Z,10.50
2022-12-31T22:28:48.527Z,10.60
2022-12-31T22:31:17.865Z,10.60
2022-12-31T22:33:45.194Z,10.50
2022-12-31T22:36:15.580Z,10.60
2022-12-31T22:38:42.953Z,10.60
2022-12-31T22:41:12.935Z,10.60
2022-12-31T22:43:48.712Z,10.70
2022-12-31T22:46:22.022Z,10.60
2022-12-31T22:48:48.901Z,10.50
2022-12-31T22:51:17.117Z,10.40
2022-12-31T22:53:44.220Z,10.40
2022-12-31T22:56:13.538Z,10.30
2022-12-31T22:58:41.040Z,10.40
2022-12-31T23:01:14.659Z,10.60
2022-12-31T23:03:42.246Z,10.60
2022-12-31T23:06:09.668Z,10.70
2022-12-31T23:08:36.859Z,10.70
2022-12-31T23:11:10.652Z,10.70
2022-12-31T23:14:01.282Z,10.70
2022-12-31T23:16:48.154Z,10.70
2022-12-31T23:19:34.770Z,10.70
2022-12-31T23:22:20.034Z,10.60
2022-12-31T23:24:46.844Z,10.60
2022-12-31T23:27:13.607Z,10.70
2022-12-31T23:29:46.803Z,10.80
2022-12-31T23:32:16.210Z,10.80
2022-12-31T23:34:44.503Z,10.90
2022-12-31T23:37:15.303Z,10.80
2022-12-31T23:39:42.778Z,10.90
2022-12-31T23:42:09.624Z,11.10
2022-12-31T23:44:36.830Z,11.10
2022-12-31T23:47:03.945Z,11.10
2022-12-31T23:49:30.934Z,11.10
2022-12-31T23:51:57.693Z,11.10
2022-12-31T23:54:24.544Z,11.10
2022-12-31T23:56:51.426Z,11.00
2022-12-31T23:59:18.466Z,10.90
